CMA CGM Tosca — FMEL — position and weather

sailwx.info

Track history (hours):
 
Tides and Currents Weather Stations Pressure Air Temp Water Temp Dewpoint Dewpoint Depression Visibility Wind Speed Wind Dir Waves Ship Positions

CMA CGM Tosca

Last reported at 2015-Mar-01 23:28 UTC. Time now 2015-Mar-02 01:05 UTC.
Position N 51°01' E 002°11'.

Length 334 m; draft 14 m.

Type: Cargo ship. MMSI: 228335900.

Date/timePositionNaut miles runAvg speedWind from/ knotsBaromVisibWave heightAir tempDewpointWater temp
2015-Mar-01 23:28N 51°01' E 002°11'0 0.0
2015-Mar-01 22:15N 51°01' E 002°11'3 4.0
2015-Mar-01 21:33N 51°03' E 002°09'1313.2
2015-Mar-01 20:34N 51°01' E 001°48'8 8.1
2015-Mar-01 19:33N 51°08' E 001°41'1010.2
2015-Mar-01 18:34N 51°16' E 001°50'9 8.9
2015-Mar-01 17:34N 51°24' E 001°58'6 6.1
2015-Mar-01 16:33N 51°23' E 002°08'7 6.7
2015-Mar-01 15:33N 51°20' E 002°18'7 7.4
2015-Mar-01 14:34N 51°23' E 002°30'9 9.2
2015-Mar-01 13:34N 51°23' E 002°44'8 7.8
2015-Mar-01 12:34N 51°25' E 002°56'1010.5
2015-Mar-01 11:34N 51°25' E 003°13'1111.3
2015-Mar-01 10:33N 51°25' E 003°31'7 7.3
2015-Mar-01 09:34N 51°24' E 003°43'9 9.4
2015-Mar-01 08:33N 51°25' E 003°58'8 8.1
2015-Mar-01 07:33N 51°24' E 004°10'7 6.9
2015-Mar-01 06:33N 51°18' E 004°16'0 0.3
2015-Mar-01 05:31N 51°17' E 004°16'0 0.0
2015-Mar-01 04:31N 51°17' E 004°16'0 0.0
2015-Mar-01 03:31N 51°17' E 004°16'0 0.0
2015-Mar-01 02:31N 51°17' E 004°16'0 0.0
2015-Mar-01 01:28N 51°17' E 004°16'0 0.0
2015-Mar-01 00:31N 51°17' E 004°16'0 0.0
2015-Feb-28 23:31N 51°17' E 004°16'0 0.0
2015-Feb-28 22:31N 51°17' E 004°16'0 0.0
2015-Feb-28 21:31N 51°17' E 004°16'0 0.0
2015-Feb-28 20:31N 51°17' E 004°16'0 0.0
2015-Feb-28 19:32N 51°17' E 004°16'0 0.0
2015-Feb-28 18:32N 51°17' E 004°16'0 0.0
2015-Feb-28 17:32N 51°17' E 004°16'0 0.0
2015-Feb-28 16:32N 51°17' E 004°16'0 0.0
2015-Feb-28 15:32N 51°17' E 004°16'0 0.0
2015-Feb-28 14:32N 51°17' E 004°16'0 0.0
2015-Feb-28 13:32N 51°17' E 004°16'0 0.0
2015-Feb-28 12:32N 51°17' E 004°16'0 0.0
2015-Feb-28 11:32N 51°17' E 004°16'0 0.0
2015-Feb-28 10:32N 51°17' E 004°16'0 0.0
2015-Feb-28 09:32N 51°17' E 004°16'0 0.0
2015-Feb-28 08:32N 51°17' E 004°16'0 0.0
2015-Feb-28 07:32N 51°17' E 004°16'0 0.0
2015-Feb-28 06:32N 51°17' E 004°16'0 0.0
2015-Feb-28 05:32N 51°17' E 004°16'0 0.2
2015-Feb-28 04:34N 51°18' E 004°16'4 3.5
2015-Feb-28 03:34N 51°21' E 004°15'7 7.2
2015-Feb-28 02:34N 51°22' E 004°04'8 7.5
2015-Feb-28 01:33N 51°21' E 003°52'10 9.7
2015-Feb-28 00:34N 51°26' E 003°39'1212.0
2015-Feb-27 23:34N 51°24' E 003°20'1212.3
2015-Feb-27 22:34N 51°28' E 003°02'1616.4
2015-Feb-27 21:33N 51°43' E 003°12'1312.8
2015-Feb-27 20:31N 51°55' E 003°02'4519.8
2015-Feb-27 18:15N 52°37' E 003°30'1522.1
2015-Feb-27 17:33N 52°49' E 003°45'2222.0
2015-Feb-27 16:33N 53°05' E 004°11'2121.4
2015-Feb-27 15:33N 53°21' E 004°33'2019.9
2015-Feb-27 14:33N 53°34' E 004°59'2020.1
2015-Feb-27 13:33N 53°41' E 005°31'2020.2
2015-Feb-27 12:33N 53°47' E 006°03'4220.8
2015-Feb-27 10:33N 53°57' E 007°12'2121.2
2015-Feb-27 09:33N 54°01' E 007°47'1717.2
2015-Feb-27 08:34N 54°00' E 008°16'1616.2
2015-Feb-27 07:33N 53°54' E 008°42'1212.1
2015-Feb-27 06:33N 53°52' E 009°02'1110.8
2015-Feb-27 05:33N 53°51' E 009°20'1212.1
2015-Feb-27 04:33N 53°40' E 009°31'1110.8
2015-Feb-27 03:33N 53°34' E 009°45'6 6.3
2015-Feb-27 02:32N 53°32' E 009°56'0 0.0
2015-Feb-27 01:29N 53°32' E 009°56'0 0.0
2015-Feb-27 00:32N 53°32' E 009°56'0 0.0
2015-Feb-26 23:32N 53°32' E 009°56'0 0.0
2015-Feb-26 22:32N 53°32' E 009°56'0 0.0
2015-Feb-26 21:32N 53°32' E 009°56'0 0.0
2015-Feb-26 20:32N 53°32' E 009°56'0 0.0
2015-Feb-26 19:32N 53°32' E 009°56'0 0.0
2015-Feb-26 18:29N 53°32' E 009°56'0 0.0
2015-Feb-26 17:32N 53°32' E 009°56'0 0.0
2015-Feb-26 16:29N 53°32' E 009°56'0 0.0
2015-Feb-26 15:29N 53°32' E 009°56'0 0.0
2015-Feb-26 14:32N 53°32' E 009°56'0 0.0
2015-Feb-26 13:29N 53°32' E 009°56'0 0.0
2015-Feb-26 12:29N 53°32' E 009°56'0 0.0
2015-Feb-26 11:32N 53°32' E 009°56'0 0.0
2015-Feb-26 10:29N 53°32' E 009°56'0 0.0
2015-Feb-26 09:32N 53°32' E 009°56'0 0.0
2015-Feb-26 08:32N 53°32' E 009°56'0 0.0
2015-Feb-26 07:26N 53°32' E 009°56'0 0.0
2015-Feb-26 06:32N 53°32' E 009°56'0 0.0
2015-Feb-26 05:32N 53°32' E 009°56'0 0.0
2015-Feb-26 04:32N 53°32' E 009°56'0 0.0
2015-Feb-26 03:32N 53°32' E 009°56'0 0.0
2015-Feb-26 02:32N 53°32' E 009°56'0 0.0
2015-Feb-26 01:29N 53°32' E 009°56'1 0.9
2015-Feb-26 00:34N 53°32' E 009°54'6 5.9
2015-Feb-25 23:34N 53°34' E 009°45'1010.2
2015-Feb-25 22:34N 53°40' E 009°31'1312.9
2015-Feb-25 21:34N 53°51' E 009°20'1010.0
2015-Feb-25 20:33N 53°52' E 009°03'1212.2
2015-Feb-25 19:33N 53°53' E 008°42'1514.8
2015-Feb-25 18:33N 53°59' E 008°19'1212.1
2015-Feb-25 17:34N 53°59' E 007°59'2218.7
2015-Feb-25 16:23N 53°54' E 007°22'3820.9
2015-Feb-25 14:33N 53°45' E 006°19'2020.5
2015-Feb-25 13:34N 53°39' E 005°47'2120.8
2015-Feb-25 12:34N 53°32' E 005°13'2121.2
2015-Feb-25 11:34N 53°23' E 004°42'2221.5
2015-Feb-25 10:33N 53°04' E 004°24'2121.5
2015-Feb-25 09:33N 52°45' E 004°06'2221.6
2015-Feb-25 08:34N 52°25' E 003°53'2020.1
2015-Feb-25 07:34N 52°05' E 003°56'10 9.6
2015-Feb-25 06:33N 51°57' E 004°05'1 0.7
2015-Feb-25 05:31N 51°58' E 004°04'0 0.0
2015-Feb-25 04:31N 51°58' E 004°04'0 0.0
2015-Feb-25 03:31N 51°58' E 004°04'0 0.0
2015-Feb-25 02:31N 51°58' E 004°04'0 0.0
2015-Feb-25 01:31N 51°58' E 004°04'0 0.0
2015-Feb-25 00:31N 51°58' E 004°04'0 0.0
2015-Feb-24 23:31N 51°58' E 004°04'0 0.0
2015-Feb-24 22:31N 51°58' E 004°04'0 0.0
2015-Feb-24 21:31N 51°58' E 004°04'0 0.0
2015-Feb-24 20:31N 51°58' E 004°04'0 0.0
2015-Feb-24 18:33N 51°58' E 004°04'0 0.0
2015-Feb-24 17:33N 51°58' E 004°04'0 0.0
2015-Feb-24 16:33N 51°58' E 004°04'0 0.0
2015-Feb-24 15:33N 51°58' E 004°04'0 0.0
2015-Feb-24 14:33N 51°58' E 004°04'0 0.0
2015-Feb-24 13:33N 51°58' E 004°04'0 0.0
2015-Feb-24 12:33N 51°58' E 004°04'0 0.0
2015-Feb-24 11:33N 51°58' E 004°04'0 0.0
2015-Feb-24 10:33N 51°58' E 004°04'0 0.0
2015-Feb-24 09:33N 51°58' E 004°04'0 0.0
2015-Feb-24 08:33N 51°58' E 004°04'2 2.2
2015-Feb-24 07:33N 51°60' E 004°02'1212.1
2015-Feb-24 06:33N 51°59' E 003°42'7 7.0
2015-Feb-24 05:32N 51°57' E 003°31'1919.3
2015-Feb-24 04:33N 51°52' E 003°01'2720.2
2015-Feb-24 03:13N 51°37' E 002°25'1522.2
2015-Feb-24 02:33N 51°27' E 002°08'2222.1
2015-Feb-24 01:33N 51°10' E 001°44'2221.5
2015-Feb-24 00:34N 50°52' E 001°26'2019.9
2015-Feb-23 23:33N 50°36' E 001°07'2321.7
2015-Feb-23 22:29N 50°27' E 000°34'4321.4
2015-Feb-23 20:28N 50°20' W 000°33'1819.2
2015-Feb-23 19:33N 50°31' W 000°55'1212.1
2015-Feb-23 18:34N 50°43' W 000°59'1313.3
2015-Feb-23 17:34N 50°49' W 001°17'8 8.1
2015-Feb-23 16:34N 50°54' W 001°27'1 0.7
2015-Feb-23 15:31N 50°55' W 001°28'0 0.0
2015-Feb-23 14:31N 50°55' W 001°28'0 0.0
2015-Feb-23 13:31N 50°55' W 001°28'0 0.0
2015-Feb-23 12:31N 50°55' W 001°28'0 0.0
2015-Feb-23 11:31N 50°55' W 001°28'0 0.0
2015-Feb-23 10:31N 50°55' W 001°28'0 0.0
2015-Feb-23 09:31N 50°55' W 001°28'0 0.0
2015-Feb-23 08:31N 50°55' W 001°28'0 0.0
2015-Feb-23 07:31N 50°55' W 001°28'0 0.0
2015-Feb-23 06:31N 50°55' W 001°28'0 0.0
2015-Feb-23 05:31N 50°55' W 001°28'0 0.0
2015-Feb-23 04:31N 50°55' W 001°28'0 0.0
2015-Feb-23 03:31N 50°55' W 001°28'0 0.0
2015-Feb-23 02:31N 50°55' W 001°28'0 0.0
2015-Feb-23 01:31N 50°55' W 001°28'0 0.0
2015-Feb-23 00:31N 50°55' W 001°28'0 0.0
2015-Feb-22 23:31N 50°55' W 001°28'0 0.0
2015-Feb-22 22:28N 50°55' W 001°28'0 0.0
2015-Feb-22 21:31N 50°55' W 001°28'0 0.0
2015-Feb-22 20:31N 50°55' W 001°28'0 0.0
2015-Feb-22 19:31N 50°55' W 001°28'0 0.0
2015-Feb-22 18:31N 50°55' W 001°28'0 0.0
2015-Feb-22 17:31N 50°55' W 001°28'0 0.0
2015-Feb-22 16:28N 50°55' W 001°28'1 1.1
2015-Feb-22 15:33N 50°54' W 001°26'7 7.4
2015-Feb-22 14:33N 50°49' W 001°18'1313.1
2015-Feb-22 13:33N 50°43' W 000°60'1010.4
2015-Feb-22 12:33N 50°33' W 000°58'9 8.9
2015-Feb-22 11:33N 50°26' W 001°07'1211.9
2015-Feb-22 10:34N 50°22' W 001°24'77618.8
2015-Feb-20 17:15N 38°55' W 009°51'1520.8
2015-Feb-20 16:33N 38°40' W 009°50'2120.9
2015-Feb-20 15:33N 38°20' W 009°46'2121.3
2015-Feb-20 14:33N 37°59' W 009°40'2121.4
2015-Feb-20 13:33N 37°38' W 009°34'2121.2
2015-Feb-20 12:33N 37°17' W 009°28'2120.8
2015-Feb-20 11:32N 36°57' W 009°21'18920.2
2015-Feb-20 02:10N 35°58' W 005°38'  
Track history (hours):
 
Tides and Currents Weather Stations Pressure Air Temp Water Temp Dewpoint Dewpoint Depression Visibility Wind Speed Wind Dir Waves Ship Positions

CMA CGM Tosca

Last reported at 2015-Mar-01 23:28 UTC. Time now 2015-Mar-02 01:05 UTC.
Position N 51°01' E 002°11'.

Length 334 m; draft 14 m.

Type: Cargo ship. MMSI: 228335900.

Date/timePositionNaut miles runAvg speedWind from/ knotsBaromVisibWave heightAir tempDewpointWater temp
2015-Mar-01 23:28N 51°01' E 002°11'0 0.0
2015-Mar-01 22:15N 51°01' E 002°11'3 4.0
2015-Mar-01 21:33N 51°03' E 002°09'1313.2
2015-Mar-01 20:34N 51°01' E 001°48'8 8.1
2015-Mar-01 19:33N 51°08' E 001°41'1010.2
2015-Mar-01 18:34N 51°16' E 001°50'9 8.9
2015-Mar-01 17:34N 51°24' E 001°58'6 6.1
2015-Mar-01 16:33N 51°23' E 002°08'7 6.7
2015-Mar-01 15:33N 51°20' E 002°18'7 7.4
2015-Mar-01 14:34N 51°23' E 002°30'9 9.2
2015-Mar-01 13:34N 51°23' E 002°44'8 7.8
2015-Mar-01 12:34N 51°25' E 002°56'1010.5
2015-Mar-01 11:34N 51°25' E 003°13'1111.3
2015-Mar-01 10:33N 51°25' E 003°31'7 7.3
2015-Mar-01 09:34N 51°24' E 003°43'9 9.4
2015-Mar-01 08:33N 51°25' E 003°58'8 8.1
2015-Mar-01 07:33N 51°24' E 004°10'7 6.9
2015-Mar-01 06:33N 51°18' E 004°16'0 0.3
2015-Mar-01 05:31N 51°17' E 004°16'0 0.0
2015-Mar-01 04:31N 51°17' E 004°16'0 0.0
2015-Mar-01 03:31N 51°17' E 004°16'0 0.0
2015-Mar-01 02:31N 51°17' E 004°16'0 0.0
2015-Mar-01 01:28N 51°17' E 004°16'0 0.0
2015-Mar-01 00:31N 51°17' E 004°16'0 0.0
2015-Feb-28 23:31N 51°17' E 004°16'0 0.0
2015-Feb-28 22:31N 51°17' E 004°16'0 0.0
2015-Feb-28 21:31N 51°17' E 004°16'0 0.0
2015-Feb-28 20:31N 51°17' E 004°16'0 0.0
2015-Feb-28 19:32N 51°17' E 004°16'0 0.0
2015-Feb-28 18:32N 51°17' E 004°16'0 0.0
2015-Feb-28 17:32N 51°17' E 004°16'0 0.0
2015-Feb-28 16:32N 51°17' E 004°16'0 0.0
2015-Feb-28 15:32N 51°17' E 004°16'0 0.0
2015-Feb-28 14:32N 51°17' E 004°16'0 0.0
2015-Feb-28 13:32N 51°17' E 004°16'0 0.0
2015-Feb-28 12:32N 51°17' E 004°16'0 0.0
2015-Feb-28 11:32N 51°17' E 004°16'0 0.0
2015-Feb-28 10:32N 51°17' E 004°16'0 0.0
2015-Feb-28 09:32N 51°17' E 004°16'0 0.0
2015-Feb-28 08:32N 51°17' E 004°16'0 0.0
2015-Feb-28 07:32N 51°17' E 004°16'0 0.0
2015-Feb-28 06:32N 51°17' E 004°16'0 0.0
2015-Feb-28 05:32N 51°17' E 004°16'0 0.2
2015-Feb-28 04:34N 51°18' E 004°16'4 3.5
2015-Feb-28 03:34N 51°21' E 004°15'7 7.2
2015-Feb-28 02:34N 51°22' E 004°04'8 7.5
2015-Feb-28 01:33N 51°21' E 003°52'10 9.7
2015-Feb-28 00:34N 51°26' E 003°39'1212.0
2015-Feb-27 23:34N 51°24' E 003°20'1212.3
2015-Feb-27 22:34N 51°28' E 003°02'1616.4
2015-Feb-27 21:33N 51°43' E 003°12'1312.8
2015-Feb-27 20:31N 51°55' E 003°02'4519.8
2015-Feb-27 18:15N 52°37' E 003°30'1522.1
2015-Feb-27 17:33N 52°49' E 003°45'2222.0
2015-Feb-27 16:33N 53°05' E 004°11'2121.4
2015-Feb-27 15:33N 53°21' E 004°33'2019.9
2015-Feb-27 14:33N 53°34' E 004°59'2020.1
2015-Feb-27 13:33N 53°41' E 005°31'2020.2
2015-Feb-27 12:33N 53°47' E 006°03'4220.8
2015-Feb-27 10:33N 53°57' E 007°12'2121.2
2015-Feb-27 09:33N 54°01' E 007°47'1717.2
2015-Feb-27 08:34N 54°00' E 008°16'1616.2
2015-Feb-27 07:33N 53°54' E 008°42'1212.1
2015-Feb-27 06:33N 53°52' E 009°02'1110.8
2015-Feb-27 05:33N 53°51' E 009°20'1212.1
2015-Feb-27 04:33N 53°40' E 009°31'1110.8
2015-Feb-27 03:33N 53°34' E 009°45'6 6.3
2015-Feb-27 02:32N 53°32' E 009°56'0 0.0
2015-Feb-27 01:29N 53°32' E 009°56'0 0.0
2015-Feb-27 00:32N 53°32' E 009°56'0 0.0
2015-Feb-26 23:32N 53°32' E 009°56'0 0.0
2015-Feb-26 22:32N 53°32' E 009°56'0 0.0
2015-Feb-26 21:32N 53°32' E 009°56'0 0.0
2015-Feb-26 20:32N 53°32' E 009°56'0 0.0
2015-Feb-26 19:32N 53°32' E 009°56'0 0.0
2015-Feb-26 18:29N 53°32' E 009°56'0 0.0
2015-Feb-26 17:32N 53°32' E 009°56'0 0.0
2015-Feb-26 16:29N 53°32' E 009°56'0 0.0
2015-Feb-26 15:29N 53°32' E 009°56'0 0.0
2015-Feb-26 14:32N 53°32' E 009°56'0 0.0
2015-Feb-26 13:29N 53°32' E 009°56'0 0.0
2015-Feb-26 12:29N 53°32' E 009°56'0 0.0
2015-Feb-26 11:32N 53°32' E 009°56'0 0.0
2015-Feb-26 10:29N 53°32' E 009°56'0 0.0
2015-Feb-26 09:32N 53°32' E 009°56'0 0.0
2015-Feb-26 08:32N 53°32' E 009°56'0 0.0
2015-Feb-26 07:26N 53°32' E 009°56'0 0.0
2015-Feb-26 06:32N 53°32' E 009°56'0 0.0
2015-Feb-26 05:32N 53°32' E 009°56'0 0.0
2015-Feb-26 04:32N 53°32' E 009°56'0 0.0
2015-Feb-26 03:32N 53°32' E 009°56'0 0.0
2015-Feb-26 02:32N 53°32' E 009°56'0 0.0
2015-Feb-26 01:29N 53°32' E 009°56'1 0.9
2015-Feb-26 00:34N 53°32' E 009°54'6 5.9
2015-Feb-25 23:34N 53°34' E 009°45'1010.2
2015-Feb-25 22:34N 53°40' E 009°31'1312.9
2015-Feb-25 21:34N 53°51' E 009°20'1010.0
2015-Feb-25 20:33N 53°52' E 009°03'1212.2
2015-Feb-25 19:33N 53°53' E 008°42'1514.8
2015-Feb-25 18:33N 53°59' E 008°19'1212.1
2015-Feb-25 17:34N 53°59' E 007°59'2218.7
2015-Feb-25 16:23N 53°54' E 007°22'3820.9
2015-Feb-25 14:33N 53°45' E 006°19'2020.5
2015-Feb-25 13:34N 53°39' E 005°47'2120.8
2015-Feb-25 12:34N 53°32' E 005°13'2121.2
2015-Feb-25 11:34N 53°23' E 004°42'2221.5
2015-Feb-25 10:33N 53°04' E 004°24'2121.5
2015-Feb-25 09:33N 52°45' E 004°06'2221.6
2015-Feb-25 08:34N 52°25' E 003°53'2020.1
2015-Feb-25 07:34N 52°05' E 003°56'10 9.6
2015-Feb-25 06:33N 51°57' E 004°05'1 0.7
2015-Feb-25 05:31N 51°58' E 004°04'0 0.0
2015-Feb-25 04:31N 51°58' E 004°04'0 0.0
2015-Feb-25 03:31N 51°58' E 004°04'0 0.0
2015-Feb-25 02:31N 51°58' E 004°04'0 0.0
2015-Feb-25 01:31N 51°58' E 004°04'0 0.0
2015-Feb-25 00:31N 51°58' E 004°04'0 0.0
2015-Feb-24 23:31N 51°58' E 004°04'0 0.0
2015-Feb-24 22:31N 51°58' E 004°04'0 0.0
2015-Feb-24 21:31N 51°58' E 004°04'0 0.0
2015-Feb-24 20:31N 51°58' E 004°04'0 0.0
2015-Feb-24 18:33N 51°58' E 004°04'0 0.0
2015-Feb-24 17:33N 51°58' E 004°04'0 0.0
2015-Feb-24 16:33N 51°58' E 004°04'0 0.0
2015-Feb-24 15:33N 51°58' E 004°04'0 0.0
2015-Feb-24 14:33N 51°58' E 004°04'0 0.0
2015-Feb-24 13:33N 51°58' E 004°04'0 0.0
2015-Feb-24 12:33N 51°58' E 004°04'0 0.0
2015-Feb-24 11:33N 51°58' E 004°04'0 0.0
2015-Feb-24 10:33N 51°58' E 004°04'0 0.0
2015-Feb-24 09:33N 51°58' E 004°04'0 0.0
2015-Feb-24 08:33N 51°58' E 004°04'2 2.2
2015-Feb-24 07:33N 51°60' E 004°02'1212.1
2015-Feb-24 06:33N 51°59' E 003°42'7 7.0
2015-Feb-24 05:32N 51°57' E 003°31'1919.3
2015-Feb-24 04:33N 51°52' E 003°01'2720.2
2015-Feb-24 03:13N 51°37' E 002°25'1522.2
2015-Feb-24 02:33N 51°27' E 002°08'2222.1
2015-Feb-24 01:33N 51°10' E 001°44'2221.5
2015-Feb-24 00:34N 50°52' E 001°26'2019.9
2015-Feb-23 23:33N 50°36' E 001°07'2321.7
2015-Feb-23 22:29N 50°27' E 000°34'4321.4
2015-Feb-23 20:28N 50°20' W 000°33'1819.2
2015-Feb-23 19:33N 50°31' W 000°55'1212.1
2015-Feb-23 18:34N 50°43' W 000°59'1313.3
2015-Feb-23 17:34N 50°49' W 001°17'8 8.1
2015-Feb-23 16:34N 50°54' W 001°27'1 0.7
2015-Feb-23 15:31N 50°55' W 001°28'0 0.0
2015-Feb-23 14:31N 50°55' W 001°28'0 0.0
2015-Feb-23 13:31N 50°55' W 001°28'0 0.0
2015-Feb-23 12:31N 50°55' W 001°28'0 0.0
2015-Feb-23 11:31N 50°55' W 001°28'0 0.0
2015-Feb-23 10:31N 50°55' W 001°28'0 0.0
2015-Feb-23 09:31N 50°55' W 001°28'0 0.0
2015-Feb-23 08:31N 50°55' W 001°28'0 0.0
2015-Feb-23 07:31N 50°55' W 001°28'0 0.0
2015-Feb-23 06:31N 50°55' W 001°28'0 0.0
2015-Feb-23 05:31N 50°55' W 001°28'0 0.0
2015-Feb-23 04:31N 50°55' W 001°28'0 0.0
2015-Feb-23 03:31N 50°55' W 001°28'0 0.0
2015-Feb-23 02:31N 50°55' W 001°28'0 0.0
2015-Feb-23 01:31N 50°55' W 001°28'0 0.0
2015-Feb-23 00:31N 50°55' W 001°28'0 0.0
2015-Feb-22 23:31N 50°55' W 001°28'0 0.0
2015-Feb-22 22:28N 50°55' W 001°28'0 0.0
2015-Feb-22 21:31N 50°55' W 001°28'0 0.0
2015-Feb-22 20:31N 50°55' W 001°28'0 0.0
2015-Feb-22 19:31N 50°55' W 001°28'0 0.0
2015-Feb-22 18:31N 50°55' W 001°28'0 0.0
2015-Feb-22 17:31N 50°55' W 001°28'0 0.0
2015-Feb-22 16:28N 50°55' W 001°28'1 1.1
2015-Feb-22 15:33N 50°54' W 001°26'7 7.4
2015-Feb-22 14:33N 50°49' W 001°18'1313.1
2015-Feb-22 13:33N 50°43' W 000°60'1010.4
2015-Feb-22 12:33N 50°33' W 000°58'9 8.9
2015-Feb-22 11:33N 50°26' W 001°07'1211.9
2015-Feb-22 10:34N 50°22' W 001°24'77618.8
2015-Feb-20 17:15N 38°55' W 009°51'1520.8
2015-Feb-20 16:33N 38°40' W 009°50'2120.9
2015-Feb-20 15:33N 38°20' W 009°46'2121.3
2015-Feb-20 14:33N 37°59' W 009°40'2121.4
2015-Feb-20 13:33N 37°38' W 009°34'2121.2
2015-Feb-20 12:33N 37°17' W 009°28'2120.8
2015-Feb-20 11:32N 36°57' W 009°21'18920.2
2015-Feb-20 02:10N 35°58' W 005°38'  

Dump ship's entire track history